sensor_id;sensor_type;location;lat;lon;timestamp;P1;durP1;ratioP1;P2;durP2;ratioP2
23608;SDS011;11982;50.810;4.442;2023-07-22T00:01:53;20.92;;;11.63;;
23608;SDS011;11982;50.810;4.442;2023-07-22T00:04:18;18.45;;;12.30;;
23608;SDS011;11982;50.810;4.442;2023-07-22T00:06:44;20.30;;;12.18;;
23608;SDS011;11982;50.810;4.442;2023-07-22T00:09:10;24.70;;;13.43;;
23608;SDS011;11982;50.810;4.442;2023-07-22T00:11:35;18.63;;;12.45;;
23608;SDS011;11982;50.810;4.442;2023-07-22T00:14:01;22.25;;;12.77;;
23608;SDS011;11982;50.810;4.442;2023-07-22T00:16:27;27.10;;;13.63;;
23608;SDS011;11982;50.810;4.442;2023-07-22T00:18:54;19.55;;;13.00;;
23608;SDS011;11982;50.810;4.442;2023-07-22T00:21:20;22.42;;;13.68;;
23608;SDS011;11982;50.810;4.442;2023-07-22T00:23:45;26.60;;;14.38;;
23608;SDS011;11982;50.810;4.442;2023-07-22T00:26:11;22.17;;;12.52;;
23608;SDS011;11982;50.810;4.442;2023-07-22T00:28:37;24.05;;;12.80;;
23608;SDS011;11982;50.810;4.442;2023-07-22T00:31:03;21.75;;;12.38;;
23608;SDS011;11982;50.810;4.442;2023-07-22T00:33:29;24.85;;;13.30;;
23608;SDS011;11982;50.810;4.442;2023-07-22T00:35:54;22.35;;;13.23;;
23608;SDS011;11982;50.810;4.442;2023-07-22T00:38:21;21.35;;;13.80;;
23608;SDS011;11982;50.810;4.442;2023-07-22T00:40:46;21.30;;;13.30;;
23608;SDS011;11982;50.810;4.442;2023-07-22T00:43:12;23.25;;;14.32;;
23608;SDS011;11982;50.810;4.442;2023-07-22T00:45:38;26.67;;;14.05;;
23608;SDS011;11982;50.810;4.442;2023-07-22T00:48:05;23.45;;;14.50;;
23608;SDS011;11982;50.810;4.442;2023-07-22T00:50:32;24.40;;;14.25;;
23608;SDS011;11982;50.810;4.442;2023-07-22T00:52:58;23.45;;;13.13;;
23608;SDS011;11982;50.810;4.442;2023-07-22T00:55:24;28.30;;;14.45;;
23608;SDS011;11982;50.810;4.442;2023-07-22T00:57:50;23.83;;;13.95;;
23608;SDS011;11982;50.810;4.442;2023-07-22T01:00:16;22.40;;;14.07;;
23608;SDS011;11982;50.810;4.442;2023-07-22T01:02:42;21.02;;;12.77;;
23608;SDS011;11982;50.810;4.442;2023-07-22T01:05:09;24.65;;;13.80;;
23608;SDS011;11982;50.810;4.442;2023-07-22T01:07:36;20.85;;;13.13;;
23608;SDS011;11982;50.810;4.442;2023-07-22T01:10:03;24.42;;;13.48;;
23608;SDS011;11982;50.810;4.442;2023-07-22T01:12:30;25.70;;;14.60;;
23608;SDS011;11982;50.810;4.442;2023-07-22T01:14:56;23.55;;;14.70;;
23608;SDS011;11982;50.810;4.442;2023-07-22T01:17:22;29.05;;;14.70;;
23608;SDS011;11982;50.810;4.442;2023-07-22T01:19:48;27.73;;;15.05;;
23608;SDS011;11982;50.810;4.442;2023-07-22T01:22:15;27.10;;;14.57;;
23608;SDS011;11982;50.810;4.442;2023-07-22T01:24:41;28.52;;;15.15;;
23608;SDS011;11982;50.810;4.442;2023-07-22T01:27:08;24.75;;;14.45;;
23608;SDS011;11982;50.810;4.442;2023-07-22T01:29:35;26.52;;;15.40;;
23608;SDS011;11982;50.810;4.442;2023-07-22T01:32:01;27.48;;;14.77;;
23608;SDS011;11982;50.810;4.442;2023-07-22T01:34:27;27.17;;;15.50;;
23608;SDS011;11982;50.810;4.442;2023-07-22T01:36:53;35.28;;;16.42;;
23608;SDS011;11982;50.810;4.442;2023-07-22T01:39:19;27.88;;;16.30;;
23608;SDS011;11982;50.810;4.442;2023-07-22T01:41:45;28.13;;;16.30;;
23608;SDS011;11982;50.810;4.442;2023-07-22T01:44:11;30.13;;;16.92;;
23608;SDS011;11982;50.810;4.442;2023-07-22T01:46:37;33.00;;;16.50;;
23608;SDS011;11982;50.810;4.442;2023-07-22T01:49:07;28.65;;;15.85;;
23608;SDS011;11982;50.810;4.442;2023-07-22T01:51:35;29.42;;;15.80;;
23608;SDS011;11982;50.810;4.442;2023-07-22T01:54:05;29.67;;;16.10;;
23608;SDS011;11982;50.810;4.442;2023-07-22T01:56:31;29.58;;;15.90;;
23608;SDS011;11982;50.810;4.442;2023-07-22T01:58:57;28.45;;;16.38;;
23608;SDS011;11982;50.810;4.442;2023-07-22T02:01:23;27.95;;;15.68;;
23608;SDS011;11982;50.810;4.442;2023-07-22T02:03:49;28.45;;;15.85;;
23608;SDS011;11982;50.810;4.442;2023-07-22T02:06:15;25.63;;;15.43;;
23608;SDS011;11982;50.810;4.442;2023-07-22T02:08:40;26.98;;;15.90;;
23608;SDS011;11982;50.810;4.442;2023-07-22T02:11:07;29.45;;;15.80;;
23608;SDS011;11982;50.810;4.442;2023-07-22T02:13:36;31.25;;;15.85;;
23608;SDS011;11982;50.810;4.442;2023-07-22T02:16:02;28.17;;;15.75;;
23608;SDS011;11982;50.810;4.442;2023-07-22T02:18:28;32.40;;;15.57;;
23608;SDS011;11982;50.810;4.442;2023-07-22T02:20:54;28.95;;;15.60;;
23608;SDS011;11982;50.810;4.442;2023-07-22T02:23:21;28.50;;;15.80;;
23608;SDS011;11982;50.810;4.442;2023-07-22T02:25:51;27.77;;;15.63;;
23608;SDS011;11982;50.810;4.442;2023-07-22T02:28:18;33.13;;;15.52;;
23608;SDS011;11982;50.810;4.442;2023-07-22T02:30:47;33.65;;;16.38;;
23608;SDS011;11982;50.810;4.442;2023-07-22T02:33:13;34.38;;;15.95;;
23608;SDS011;11982;50.810;4.442;2023-07-22T02:35:40;29.65;;;15.38;;
23608;SDS011;11982;50.810;4.442;2023-07-22T02:38:06;30.23;;;15.32;;
23608;SDS011;11982;50.810;4.442;2023-07-22T02:40:35;31.50;;;16.98;;
23608;SDS011;11982;50.810;4.442;2023-07-22T02:43:04;37.50;;;17.23;;
23608;SDS011;11982;50.810;4.442;2023-07-22T02:45:32;31.95;;;16.40;;
23608;SDS011;11982;50.810;4.442;2023-07-22T02:47:58;35.85;;;16.65;;
23608;SDS011;11982;50.810;4.442;2023-07-22T02:50:24;32.25;;;16.65;;
23608;SDS011;11982;50.810;4.442;2023-07-22T02:52:50;35.42;;;17.80;;
23608;SDS011;11982;50.810;4.442;2023-07-22T02:55:17;34.60;;;18.00;;
23608;SDS011;11982;50.810;4.442;2023-07-22T02:57:46;36.40;;;17.00;;
23608;SDS011;11982;50.810;4.442;2023-07-22T03:00:13;34.50;;;18.10;;
23608;SDS011;11982;50.810;4.442;2023-07-22T03:02:53;35.85;;;17.88;;
23608;SDS011;11982;50.810;4.442;2023-07-22T03:05:25;30.65;;;17.67;;
23608;SDS011;11982;50.810;4.442;2023-07-22T03:07:53;35.60;;;18.23;;
23608;SDS011;11982;50.810;4.442;2023-07-22T03:10:18;40.30;;;18.70;;
23608;SDS011;11982;50.810;4.442;2023-07-22T03:12:44;33.08;;;17.50;;
23608;SDS011;11982;50.810;4.442;2023-07-22T03:15:10;32.53;;;17.98;;
23608;SDS011;11982;50.810;4.442;2023-07-22T03:17:37;36.83;;;17.48;;
23608;SDS011;11982;50.810;4.442;2023-07-22T03:20:04;34.15;;;18.05;;
23608;SDS011;11982;50.810;4.442;2023-07-22T03:22:39;33.13;;;18.08;;
23608;SDS011;11982;50.810;4.442;2023-07-22T03:25:05;35.65;;;18.63;;
23608;SDS011;11982;50.810;4.442;2023-07-22T03:27:33;37.58;;;17.73;;
23608;SDS011;11982;50.810;4.442;2023-07-22T03:29:59;35.47;;;17.90;;
23608;SDS011;11982;50.810;4.442;2023-07-22T03:32:24;37.65;;;18.95;;
23608;SDS011;11982;50.810;4.442;2023-07-22T03:34:50;33.90;;;17.65;;
23608;SDS011;11982;50.810;4.442;2023-07-22T03:37:16;38.47;;;18.63;;
23608;SDS011;11982;50.810;4.442;2023-07-22T03:39:41;33.92;;;18.08;;
23608;SDS011;11982;50.810;4.442;2023-07-22T03:42:07;35.70;;;17.52;;
23608;SDS011;11982;50.810;4.442;2023-07-22T03:44:33;37.70;;;18.20;;
23608;SDS011;11982;50.810;4.442;2023-07-22T03:46:59;35.10;;;18.45;;
23608;SDS011;11982;50.810;4.442;2023-07-22T03:49:25;41.22;;;19.40;;
23608;SDS011;11982;50.810;4.442;2023-07-22T03:51:50;41.22;;;20.27;;
23608;SDS011;11982;50.810;4.442;2023-07-22T03:54:16;42.05;;;18.90;;
23608;SDS011;11982;50.810;4.442;2023-07-22T03:56:41;41.17;;;20.20;;
23608;SDS011;11982;50.810;4.442;2023-07-22T03:59:07;41.90;;;18.92;;
23608;SDS011;11982;50.810;4.442;2023-07-22T04:01:33;41.20;;;19.73;;
23608;SDS011;11982;50.810;4.442;2023-07-22T04:03:58;39.97;;;19.80;;
23608;SDS011;11982;50.810;4.442;2023-07-22T04:06:24;46.80;;;20.55;;
23608;SDS011;11982;50.810;4.442;2023-07-22T04:08:50;37.70;;;18.33;;
23608;SDS011;11982;50.810;4.442;2023-07-22T04:11:16;41.80;;;19.75;;
23608;SDS011;11982;50.810;4.442;2023-07-22T04:13:42;50.95;;;20.30;;
23608;SDS011;11982;50.810;4.442;2023-07-22T04:16:07;41.33;;;20.73;;
23608;SDS011;11982;50.810;4.442;2023-07-22T04:18:33;44.55;;;20.02;;
23608;SDS011;11982;50.810;4.442;2023-07-22T04:20:59;44.13;;;20.27;;
23608;SDS011;11982;50.810;4.442;2023-07-22T04:23:25;39.60;;;19.00;;
23608;SDS011;11982;50.810;4.442;2023-07-22T04:25:51;44.05;;;20.20;;
23608;SDS011;11982;50.810;4.442;2023-07-22T04:28:17;39.40;;;18.27;;
23608;SDS011;11982;50.810;4.442;2023-07-22T04:30:43;44.47;;;19.33;;
23608;SDS011;11982;50.810;4.442;2023-07-22T04:33:19;36.05;;;18.00;;
23608;SDS011;11982;50.810;4.442;2023-07-22T04:35:44;43.92;;;19.88;;
23608;SDS011;11982;50.810;4.442;2023-07-22T04:38:10;41.78;;;18.45;;
23608;SDS011;11982;50.810;4.442;2023-07-22T04:40:35;43.17;;;19.25;;
23608;SDS011;11982;50.810;4.442;2023-07-22T04:43:01;39.72;;;17.70;;
23608;SDS011;11982;50.810;4.442;2023-07-22T04:45:28;39.00;;;18.10;;
23608;SDS011;11982;50.810;4.442;2023-07-22T04:47:54;43.10;;;19.88;;
23608;SDS011;11982;50.810;4.442;2023-07-22T04:50:19;36.08;;;17.42;;
23608;SDS011;11982;50.810;4.442;2023-07-22T04:52:46;33.60;;;17.50;;
23608;SDS011;11982;50.810;4.442;2023-07-22T04:55:12;42.10;;;18.67;;
23608;SDS011;11982;50.810;4.442;2023-07-22T04:57:39;39.88;;;17.88;;
23608;SDS011;11982;50.810;4.442;2023-07-22T05:00:13;33.38;;;17.13;;
23608;SDS011;11982;50.810;4.442;2023-07-22T05:02:44;41.15;;;16.98;;
23608;SDS011;11982;50.810;4.442;2023-07-22T05:05:14;38.60;;;17.23;;
23608;SDS011;11982;50.810;4.442;2023-07-22T05:07:40;29.40;;;15.57;;
23608;SDS011;11982;50.810;4.442;2023-07-22T05:10:06;40.75;;;18.55;;
23608;SDS011;11982;50.810;4.442;2023-07-22T05:12:40;42.28;;;18.10;;
23608;SDS011;11982;50.810;4.442;2023-07-22T05:15:10;30.77;;;15.05;;
23608;SDS011;11982;50.810;4.442;2023-07-22T05:17:37;33.38;;;15.85;;
23608;SDS011;11982;50.810;4.442;2023-07-22T05:20:03;29.27;;;16.65;;
23608;SDS011;11982;50.810;4.442;2023-07-22T05:22:31;34.90;;;17.02;;
23608;SDS011;11982;50.810;4.442;2023-07-22T05:24:57;34.90;;;16.42;;
23608;SDS011;11982;50.810;4.442;2023-07-22T05:27:24;36.55;;;15.07;;
23608;SDS011;11982;50.810;4.442;2023-07-22T05:29:50;33.45;;;16.55;;
23608;SDS011;11982;50.810;4.442;2023-07-22T05:32:16;29.35;;;15.75;;
23608;SDS011;11982;50.810;4.442;2023-07-22T05:34:41;34.08;;;15.85;;
23608;SDS011;11982;50.810;4.442;2023-07-22T05:37:07;30.85;;;15.15;;
23608;SDS011;11982;50.810;4.442;2023-07-22T05:39:33;31.98;;;15.23;;
23608;SDS011;11982;50.810;4.442;2023-07-22T05:41:58;30.35;;;14.43;;
23608;SDS011;11982;50.810;4.442;2023-07-22T05:44:24;27.85;;;13.27;;
23608;SDS011;11982;50.810;4.442;2023-07-22T05:46:50;33.58;;;13.50;;
23608;SDS011;11982;50.810;4.442;2023-07-22T05:49:15;28.17;;;13.20;;
23608;SDS011;11982;50.810;4.442;2023-07-22T05:51:41;23.23;;;11.60;;
23608;SDS011;11982;50.810;4.442;2023-07-22T05:54:07;25.08;;;12.18;;
23608;SDS011;11982;50.810;4.442;2023-07-22T05:56:32;27.23;;;11.98;;
23608;SDS011;11982;50.810;4.442;2023-07-22T05:58:58;27.77;;;11.88;;
23608;SDS011;11982;50.810;4.442;2023-07-22T06:01:24;29.73;;;12.25;;
23608;SDS011;11982;50.810;4.442;2023-07-22T06:03:50;26.95;;;11.77;;
23608;SDS011;11982;50.810;4.442;2023-07-22T06:06:15;20.42;;;10.65;;
23608;SDS011;11982;50.810;4.442;2023-07-22T06:08:41;22.13;;;10.20;;
23608;SDS011;11982;50.810;4.442;2023-07-22T06:11:07;25.20;;;9.93;;
23608;SDS011;11982;50.810;4.442;2023-07-22T06:13:33;23.58;;;10.07;;
23608;SDS011;11982;50.810;4.442;2023-07-22T06:15:58;20.50;;;10.27;;
23608;SDS011;11982;50.810;4.442;2023-07-22T06:18:24;21.05;;;10.20;;
23608;SDS011;11982;50.810;4.442;2023-07-22T06:20:50;30.98;;;10.75;;
23608;SDS011;11982;50.810;4.442;2023-07-22T06:23:16;18.48;;;9.48;;
23608;SDS011;11982;50.810;4.442;2023-07-22T06:25:42;19.40;;;9.32;;
23608;SDS011;11982;50.810;4.442;2023-07-22T06:28:08;16.98;;;9.60;;
23608;SDS011;11982;50.810;4.442;2023-07-22T06:30:34;18.88;;;9.68;;
23608;SDS011;11982;50.810;4.442;2023-07-22T06:33:00;19.95;;;9.63;;
23608;SDS011;11982;50.810;4.442;2023-07-22T06:35:25;22.00;;;9.48;;
23608;SDS011;11982;50.810;4.442;2023-07-22T06:37:51;27.23;;;10.20;;
23608;SDS011;11982;50.810;4.442;2023-07-22T06:40:17;19.67;;;9.15;;
23608;SDS011;11982;50.810;4.442;2023-07-22T06:42:43;19.45;;;8.88;;
23608;SDS011;11982;50.810;4.442;2023-07-22T06:45:09;22.33;;;8.43;;
23608;SDS011;11982;50.810;4.442;2023-07-22T06:47:35;21.50;;;9.30;;
23608;SDS011;11982;50.810;4.442;2023-07-22T06:50:02;22.02;;;9.40;;
23608;SDS011;11982;50.810;4.442;2023-07-22T06:52:29;20.15;;;8.57;;
23608;SDS011;11982;50.810;4.442;2023-07-22T06:54:58;21.45;;;8.73;;
23608;SDS011;11982;50.810;4.442;2023-07-22T06:57:24;22.77;;;8.63;;
23608;SDS011;11982;50.810;4.442;2023-07-22T06:59:55;22.70;;;9.02;;
23608;SDS011;11982;50.810;4.442;2023-07-22T07:02:21;19.45;;;8.77;;
23608;SDS011;11982;50.810;4.442;2023-07-22T07:04:47;17.27;;;7.60;;
23608;SDS011;11982;50.810;4.442;2023-07-22T07:07:13;19.02;;;8.43;;
23608;SDS011;11982;50.810;4.442;2023-07-22T07:09:40;16.70;;;7.63;;
23608;SDS011;11982;50.810;4.442;2023-07-22T07:12:06;24.05;;;9.55;;
23608;SDS011;11982;50.810;4.442;2023-07-22T07:14:32;21.20;;;8.38;;
23608;SDS011;11982;50.810;4.442;2023-07-22T07:16:58;20.67;;;7.80;;
23608;SDS011;11982;50.810;4.442;2023-07-22T07:19:25;17.50;;;8.45;;
23608;SDS011;11982;50.810;4.442;2023-07-22T07:21:51;16.55;;;7.70;;
23608;SDS011;11982;50.810;4.442;2023-07-22T07:24:17;23.30;;;8.32;;
23608;SDS011;11982;50.810;4.442;2023-07-22T07:26:42;17.02;;;7.32;;
23608;SDS011;11982;50.810;4.442;2023-07-22T07:29:08;16.70;;;8.15;;
23608;SDS011;11982;50.810;4.442;2023-07-22T07:31:34;16.80;;;7.72;;
23608;SDS011;11982;50.810;4.442;2023-07-22T07:34:00;19.10;;;7.38;;
23608;SDS011;11982;50.810;4.442;2023-07-22T07:36:26;21.05;;;8.00;;
23608;SDS011;11982;50.810;4.442;2023-07-22T07:38:52;17.77;;;7.55;;
23608;SDS011;11982;50.810;4.442;2023-07-22T07:41:17;19.48;;;7.97;;
23608;SDS011;11982;50.810;4.442;2023-07-22T07:43:43;19.60;;;7.90;;
23608;SDS011;11982;50.810;4.442;2023-07-22T07:48:39;17.48;;;7.35;;
23608;SDS011;11982;50.810;4.442;2023-07-22T07:51:05;16.55;;;7.05;;
23608;SDS011;11982;50.810;4.442;2023-07-22T07:53:31;16.52;;;6.53;;
23608;SDS011;11982;50.810;4.442;2023-07-22T07:55:56;14.30;;;6.65;;
23608;SDS011;11982;50.810;4.442;2023-07-22T07:58:22;18.65;;;6.75;;
23608;SDS011;11982;50.810;4.442;2023-07-22T08:00:48;16.20;;;6.35;;
23608;SDS011;11982;50.810;4.442;2023-07-22T08:03:13;18.05;;;7.03;;
23608;SDS011;11982;50.810;4.442;2023-07-22T08:05:39;16.92;;;6.68;;
23608;SDS011;11982;50.810;4.442;2023-07-22T08:08:05;19.27;;;6.88;;
23608;SDS011;11982;50.810;4.442;2023-07-22T08:10:30;10.38;;;5.47;;
23608;SDS011;11982;50.810;4.442;2023-07-22T08:12:56;16.17;;;6.00;;
23608;SDS011;11982;50.810;4.442;2023-07-22T08:15:22;12.82;;;5.63;;
23608;SDS011;11982;50.810;4.442;2023-07-22T08:17:47;20.38;;;6.18;;
23608;SDS011;11982;50.810;4.442;2023-07-22T08:20:13;12.35;;;5.20;;
23608;SDS011;11982;50.810;4.442;2023-07-22T08:22:39;14.50;;;5.13;;
23608;SDS011;11982;50.810;4.442;2023-07-22T08:25:04;16.02;;;5.75;;
23608;SDS011;11982;50.810;4.442;2023-07-22T08:27:30;13.55;;;5.10;;
23608;SDS011;11982;50.810;4.442;2023-07-22T08:29:56;12.63;;;5.05;;
23608;SDS011;11982;50.810;4.442;2023-07-22T08:32:22;12.68;;;5.15;;
23608;SDS011;11982;50.810;4.442;2023-07-22T08:34:47;14.98;;;5.32;;
23608;SDS011;11982;50.810;4.442;2023-07-22T08:37:13;12.23;;;5.15;;
23608;SDS011;11982;50.810;4.442;2023-07-22T08:39:39;13.18;;;4.93;;
23608;SDS011;11982;50.810;4.442;2023-07-22T08:42:04;11.13;;;5.10;;
23608;SDS011;11982;50.810;4.442;2023-07-22T08:44:33;13.43;;;4.53;;
23608;SDS011;11982;50.810;4.442;2023-07-22T08:47:01;10.45;;;4.53;;
23608;SDS011;11982;50.810;4.442;2023-07-22T08:49:31;11.85;;;4.95;;
23608;SDS011;11982;50.810;4.442;2023-07-22T08:51:57;11.02;;;4.50;;
23608;SDS011;11982;50.810;4.442;2023-07-22T08:54:25;12.68;;;4.78;;
23608;SDS011;11982;50.810;4.442;2023-07-22T08:56:53;9.15;;;4.85;;
23608;SDS011;11982;50.810;4.442;2023-07-22T08:59:19;10.80;;;4.53;;
23608;SDS011;11982;50.810;4.442;2023-07-22T09:01:45;12.77;;;5.20;;
23608;SDS011;11982;50.810;4.442;2023-07-22T09:04:13;10.70;;;5.00;;
23608;SDS011;11982;50.810;4.442;2023-07-22T09:06:38;12.48;;;4.30;;
23608;SDS011;11982;50.810;4.442;2023-07-22T09:09:06;8.40;;;4.10;;
23608;SDS011;11982;50.810;4.442;2023-07-22T09:11:34;10.27;;;4.60;;
23608;SDS011;11982;50.810;4.442;2023-07-22T09:14:02;10.80;;;3.85;;
23608;SDS011;11982;50.810;4.442;2023-07-22T09:16:29;8.35;;;3.88;;
23608;SDS011;11982;50.810;4.442;2023-07-22T09:18:59;9.05;;;3.60;;
23608;SDS011;11982;50.810;4.442;2023-07-22T09:21:25;6.18;;;3.58;;
23608;SDS011;11982;50.810;4.442;2023-07-22T09:23:53;5.78;;;2.70;;
23608;SDS011;11982;50.810;4.442;2023-07-22T09:26:18;9.15;;;2.97;;
23608;SDS011;11982;50.810;4.442;2023-07-22T09:28:49;5.78;;;2.45;;
23608;SDS011;11982;50.810;4.442;2023-07-22T09:31:18;5.97;;;2.78;;
23608;SDS011;11982;50.810;4.442;2023-07-22T09:33:45;4.18;;;3.10;;
23608;SDS011;11982;50.810;4.442;2023-07-22T09:36:10;6.00;;;2.92;;
23608;SDS011;11982;50.810;4.442;2023-07-22T09:38:37;6.68;;;2.50;;
23608;SDS011;11982;50.810;4.442;2023-07-22T09:41:02;4.78;;;2.40;;
23608;SDS011;11982;50.810;4.442;2023-07-22T09:43:29;5.43;;;2.85;;
23608;SDS011;11982;50.810;4.442;2023-07-22T09:45:56;5.15;;;2.25;;
23608;SDS011;11982;50.810;4.442;2023-07-22T09:48:30;3.13;;;2.25;;
23608;SDS011;11982;50.810;4.442;2023-07-22T09:51:04;3.38;;;2.20;;
23608;SDS011;11982;50.810;4.442;2023-07-22T09:53:29;6.28;;;2.83;;
23608;SDS011;11982;50.810;4.442;2023-07-22T09:55:55;4.30;;;2.50;;
23608;SDS011;11982;50.810;4.442;2023-07-22T09:58:29;5.13;;;2.78;;
23608;SDS011;11982;50.810;4.442;2023-07-22T10:00:55;4.18;;;2.80;;
23608;SDS011;11982;50.810;4.442;2023-07-22T10:03:22;7.38;;;3.10;;
23608;SDS011;11982;50.810;4.442;2023-07-22T10:05:54;5.00;;;2.88;;
23608;SDS011;11982;50.810;4.442;2023-07-22T10:08:19;5.53;;;3.05;;
23608;SDS011;11982;50.810;4.442;2023-07-22T10:10:48;7.95;;;2.85;;
23608;SDS011;11982;50.810;4.442;2023-07-22T10:13:18;5.70;;;2.92;;
23608;SDS011;11982;50.810;4.442;2023-07-22T10:15:44;5.88;;;2.67;;
23608;SDS011;11982;50.810;4.442;2023-07-22T10:18:11;4.72;;;2.70;;
23608;SDS011;11982;50.810;4.442;2023-07-22T10:20:37;5.25;;;2.58;;
23608;SDS011;11982;50.810;4.442;2023-07-22T10:23:04;6.18;;;2.80;;
23608;SDS011;11982;50.810;4.442;2023-07-22T10:25:33;5.63;;;2.50;;
23608;SDS011;11982;50.810;4.442;2023-07-22T10:28:00;2.80;;;2.28;;
23608;SDS011;11982;50.810;4.442;2023-07-22T10:30:26;4.10;;;2.13;;
23608;SDS011;11982;50.810;4.442;2023-07-22T10:32:52;5.00;;;2.20;;
23608;SDS011;11982;50.810;4.442;2023-07-22T10:40:47;2.80;;;1.95;;
23608;SDS011;11982;50.810;4.442;2023-07-22T10:43:15;3.40;;;2.22;;
23608;SDS011;11982;50.810;4.442;2023-07-22T10:45:51;3.30;;;2.10;;
23608;SDS011;11982;50.810;4.442;2023-07-22T10:48:18;2.88;;;1.70;;
23608;SDS011;11982;50.810;4.442;2023-07-22T10:50:49;3.83;;;2.20;;
23608;SDS011;11982;50.810;4.442;2023-07-22T10:56:18;6.00;;;2.17;;
23608;SDS011;11982;50.810;4.442;2023-07-22T10:58:55;4.95;;;2.20;;
23608;SDS011;11982;50.810;4.442;2023-07-22T11:11:53;4.80;;;2.22;;
23608;SDS011;11982;50.810;4.442;2023-07-22T11:14:22;4.60;;;2.50;;
23608;SDS011;11982;50.810;4.442;2023-07-22T11:16:48;5.43;;;2.47;;
23608;SDS011;11982;50.810;4.442;2023-07-22T11:19:14;5.40;;;2.20;;
23608;SDS011;11982;50.810;4.442;2023-07-22T11:21:42;4.13;;;2.75;;
23608;SDS011;11982;50.810;4.442;2023-07-22T11:24:08;3.67;;;2.58;;
23608;SDS011;11982;50.810;4.442;2023-07-22T11:26:34;5.60;;;2.85;;
23608;SDS011;11982;50.810;4.442;2023-07-22T11:29:00;5.72;;;2.72;;
23608;SDS011;11982;50.810;4.442;2023-07-22T11:31:31;7.22;;;2.53;;
23608;SDS011;11982;50.810;4.442;2023-07-22T11:33:57;5.20;;;2.88;;
23608;SDS011;11982;50.810;4.442;2023-07-22T11:36:23;5.70;;;3.00;;
23608;SDS011;11982;50.810;4.442;2023-07-22T11:38:49;4.60;;;2.80;;
23608;SDS011;11982;50.810;4.442;2023-07-22T11:41:14;4.20;;;2.97;;
23608;SDS011;11982;50.810;4.442;2023-07-22T11:43:40;6.80;;;2.80;;
23608;SDS011;11982;50.810;4.442;2023-07-22T11:46:06;7.18;;;2.72;;
23608;SDS011;11982;50.810;4.442;2023-07-22T11:48:32;5.18;;;2.85;;
23608;SDS011;11982;50.810;4.442;2023-07-22T11:50:58;5.70;;;3.38;;
23608;SDS011;11982;50.810;4.442;2023-07-22T11:53:27;3.70;;;2.38;;
23608;SDS011;11982;50.810;4.442;2023-07-22T11:55:57;3.22;;;2.60;;
23608;SDS011;11982;50.810;4.442;2023-07-22T11:58:26;5.13;;;2.72;;
23608;SDS011;11982;50.810;4.442;2023-07-22T12:01:01;4.15;;;2.60;;
23608;SDS011;11982;50.810;4.442;2023-07-22T12:03:32;4.90;;;2.75;;
23608;SDS011;11982;50.810;4.442;2023-07-22T12:06:02;9.75;;;2.88;;
23608;SDS011;11982;50.810;4.442;2023-07-22T12:08:34;5.70;;;2.75;;
23608;SDS011;11982;50.810;4.442;2023-07-22T12:11:01;6.20;;;2.60;;
23608;SDS011;11982;50.810;4.442;2023-07-22T12:13:27;4.38;;;2.80;;
23608;SDS011;11982;50.810;4.442;2023-07-22T12:16:02;5.65;;;2.67;;
23608;SDS011;11982;50.810;4.442;2023-07-22T12:18:45;3.25;;;2.45;;
23608;SDS011;11982;50.810;4.442;2023-07-22T12:21:12;3.58;;;2.30;;
23608;SDS011;11982;50.810;4.442;2023-07-22T12:23:39;4.35;;;2.60;;
23608;SDS011;11982;50.810;4.442;2023-07-22T12:26:06;6.40;;;2.40;;
23608;SDS011;11982;50.810;4.442;2023-07-22T12:28:31;6.28;;;2.63;;
23608;SDS011;11982;50.810;4.442;2023-07-22T12:30:57;6.55;;;2.50;;
23608;SDS011;11982;50.810;4.442;2023-07-22T12:33:23;2.42;;;2.13;;
23608;SDS011;11982;50.810;4.442;2023-07-22T12:35:49;5.63;;;2.38;;
23608;SDS011;11982;50.810;4.442;2023-07-22T12:38:15;4.32;;;2.20;;
23608;SDS011;11982;50.810;4.442;2023-07-22T12:40:41;4.05;;;2.13;;
23608;SDS011;11982;50.810;4.442;2023-07-22T12:43:07;4.63;;;2.40;;
23608;SDS011;11982;50.810;4.442;2023-07-22T12:45:33;9.23;;;2.72;;
23608;SDS011;11982;50.810;4.442;2023-07-22T12:47:59;3.67;;;2.00;;
23608;SDS011;11982;50.810;4.442;2023-07-22T12:50:24;6.68;;;2.25;;
23608;SDS011;11982;50.810;4.442;2023-07-22T12:52:50;2.40;;;1.92;;
23608;SDS011;11982;50.810;4.442;2023-07-22T12:55:16;5.15;;;2.35;;
23608;SDS011;11982;50.810;4.442;2023-07-22T12:57:42;3.40;;;2.22;;
23608;SDS011;11982;50.810;4.442;2023-07-22T13:00:07;7.03;;;2.05;;
23608;SDS011;11982;50.810;4.442;2023-07-22T13:02:36;4.05;;;2.00;;
23608;SDS011;11982;50.810;4.442;2023-07-22T13:05:02;7.07;;;2.40;;
23608;SDS011;11982;50.810;4.442;2023-07-22T13:07:29;6.85;;;1.85;;
23608;SDS011;11982;50.810;4.442;2023-07-22T13:09:55;3.28;;;2.05;;
23608;SDS011;11982;50.810;4.442;2023-07-22T13:12:22;4.97;;;2.20;;
23608;SDS011;11982;50.810;4.442;2023-07-22T13:14:48;2.53;;;1.88;;
23608;SDS011;11982;50.810;4.442;2023-07-22T13:17:14;8.80;;;1.75;;
23608;SDS011;11982;50.810;4.442;2023-07-22T13:19:39;4.65;;;1.90;;
23608;SDS011;11982;50.810;4.442;2023-07-22T13:22:05;6.45;;;2.20;;
23608;SDS011;11982;50.810;4.442;2023-07-22T13:24:31;3.35;;;2.10;;
23608;SDS011;11982;50.810;4.442;2023-07-22T13:26:56;4.95;;;1.55;;
23608;SDS011;11982;50.810;4.442;2023-07-22T13:29:22;5.82;;;2.20;;
23608;SDS011;11982;50.810;4.442;2023-07-22T13:31:47;6.72;;;2.03;;
23608;SDS011;11982;50.810;4.442;2023-07-22T13:34:13;3.00;;;2.05;;
23608;SDS011;11982;50.810;4.442;2023-07-22T13:36:41;2.13;;;1.90;;
23608;SDS011;11982;50.810;4.442;2023-07-22T13:39:07;5.70;;;1.80;;
23608;SDS011;11982;50.810;4.442;2023-07-22T13:41:32;4.00;;;2.00;;
23608;SDS011;11982;50.810;4.442;2023-07-22T13:43:58;5.78;;;2.20;;
23608;SDS011;11982;50.810;4.442;2023-07-22T13:46:24;3.50;;;2.25;;
23608;SDS011;11982;50.810;4.442;2023-07-22T13:48:49;6.05;;;2.10;;
23608;SDS011;11982;50.810;4.442;2023-07-22T13:51:15;3.28;;;1.90;;
23608;SDS011;11982;50.810;4.442;2023-07-22T13:53:41;5.28;;;2.35;;
23608;SDS011;11982;50.810;4.442;2023-07-22T13:56:06;4.60;;;1.92;;
23608;SDS011;11982;50.810;4.442;2023-07-22T13:58:32;5.82;;;2.78;;
23608;SDS011;11982;50.810;4.442;2023-07-22T14:00:58;4.15;;;2.33;;
23608;SDS011;11982;50.810;4.442;2023-07-22T14:03:23;4.30;;;2.53;;
23608;SDS011;11982;50.810;4.442;2023-07-22T14:05:49;6.55;;;2.58;;
23608;SDS011;11982;50.810;4.442;2023-07-22T14:08:15;6.07;;;2.78;;
23608;SDS011;11982;50.810;4.442;2023-07-22T14:10:40;4.35;;;2.85;;
23608;SDS011;11982;50.810;4.442;2023-07-22T14:13:06;4.85;;;2.47;;
23608;SDS011;11982;50.810;4.442;2023-07-22T14:15:32;5.38;;;2.70;;
23608;SDS011;11982;50.810;4.442;2023-07-22T14:17:57;4.32;;;2.45;;
23608;SDS011;11982;50.810;4.442;2023-07-22T14:20:23;5.43;;;2.55;;
23608;SDS011;11982;50.810;4.442;2023-07-22T14:22:49;6.70;;;2.67;;
23608;SDS011;11982;50.810;4.442;2023-07-22T14:25:15;4.95;;;2.40;;
23608;SDS011;11982;50.810;4.442;2023-07-22T14:27:41;6.03;;;2.72;;
23608;SDS011;11982;50.810;4.442;2023-07-22T14:30:07;6.82;;;2.47;;
23608;SDS011;11982;50.810;4.442;2023-07-22T14:32:33;5.28;;;2.22;;
23608;SDS011;11982;50.810;4.442;2023-07-22T14:34:59;5.85;;;2.40;;
23608;SDS011;11982;50.810;4.442;2023-07-22T14:37:25;3.13;;;2.10;;
23608;SDS011;11982;50.810;4.442;2023-07-22T14:39:51;7.78;;;2.58;;
23608;SDS011;11982;50.810;4.442;2023-07-22T14:42:16;10.57;;;3.17;;
23608;SDS011;11982;50.810;4.442;2023-07-22T14:44:42;4.68;;;2.00;;
23608;SDS011;11982;50.810;4.442;2023-07-22T14:47:08;6.35;;;2.28;;
23608;SDS011;11982;50.810;4.442;2023-07-22T14:49:34;5.75;;;2.17;;
23608;SDS011;11982;50.810;4.442;2023-07-22T14:51:59;6.95;;;1.92;;